sensor_id;sensor_type;location;lat;lon;timestamp;temperature;humidity
41876;DHT22;27555;50.808;4.402;2022-12-07T00:03:53;7.40;99.90
41876;DHT22;27555;50.808;4.402;2022-12-07T00:06:19;7.40;99.90
41876;DHT22;27555;50.808;4.402;2022-12-07T00:08:46;7.20;99.90
41876;DHT22;27555;50.808;4.402;2022-12-07T00:13:40;6.70;99.90
41876;DHT22;27555;50.808;4.402;2022-12-07T00:18:36;6.80;99.90
41876;DHT22;27555;50.808;4.402;2022-12-07T00:21:03;6.90;99.90
41876;DHT22;27555;50.808;4.402;2022-12-07T00:23:29;7.00;99.90
41876;DHT22;27555;50.808;4.402;2022-12-07T00:25:55;6.80;99.90
41876;DHT22;27555;50.808;4.402;2022-12-07T00:28:21;7.00;99.90
41876;DHT22;27555;50.808;4.402;2022-12-07T00:30:46;7.10;99.90
41876;DHT22;27555;50.808;4.402;2022-12-07T00:33:12;6.70;99.90
41876;DHT22;27555;50.808;4.402;2022-12-07T00:35:37;6.60;99.90
41876;DHT22;27555;50.808;4.402;2022-12-07T00:38:03;6.70;99.90
41876;DHT22;27555;50.808;4.402;2022-12-07T00:40:28;6.80;99.90
41876;DHT22;27555;50.808;4.402;2022-12-07T00:42:54;6.70;99.90
41876;DHT22;27555;50.808;4.402;2022-12-07T00:45:20;6.50;99.90
41876;DHT22;27555;50.808;4.402;2022-12-07T00:47:45;6.60;99.90
41876;DHT22;27555;50.808;4.402;2022-12-07T00:50:11;6.60;99.90
41876;DHT22;27555;50.808;4.402;2022-12-07T00:52:36;6.40;99.90
41876;DHT22;27555;50.808;4.402;2022-12-07T00:55:02;6.10;99.90
41876;DHT22;27555;50.808;4.402;2022-12-07T00:57:28;6.00;99.90
41876;DHT22;27555;50.808;4.402;2022-12-07T00:59:55;6.40;99.90
41876;DHT22;27555;50.808;4.402;2022-12-07T01:02:23;6.60;99.90
41876;DHT22;27555;50.808;4.402;2022-12-07T01:04:48;6.70;99.90
41876;DHT22;27555;50.808;4.402;2022-12-07T01:07:14;6.50;99.90
41876;DHT22;27555;50.808;4.402;2022-12-07T01:09:40;6.70;99.90
41876;DHT22;27555;50.808;4.402;2022-12-07T01:12:05;6.60;99.90
41876;DHT22;27555;50.808;4.402;2022-12-07T01:14:31;6.60;99.90
41876;DHT22;27555;50.808;4.402;2022-12-07T01:16:57;6.70;99.90
41876;DHT22;27555;50.808;4.402;2022-12-07T01:19:22;6.80;99.90
41876;DHT22;27555;50.808;4.402;2022-12-07T01:21:48;6.50;99.90
41876;DHT22;27555;50.808;4.402;2022-12-07T01:24:14;6.30;99.90
41876;DHT22;27555;50.808;4.402;2022-12-07T01:26:39;6.40;99.90
41876;DHT22;27555;50.808;4.402;2022-12-07T01:29:05;6.20;99.90
41876;DHT22;27555;50.808;4.402;2022-12-07T01:31:30;6.20;99.90
41876;DHT22;27555;50.808;4.402;2022-12-07T01:33:57;6.20;99.90
41876;DHT22;27555;50.808;4.402;2022-12-07T01:36:41;6.50;99.90
41876;DHT22;27555;50.808;4.402;2022-12-07T01:39:08;6.30;99.90
41876;DHT22;27555;50.808;4.402;2022-12-07T01:41:37;6.40;99.90
41876;DHT22;27555;50.808;4.402;2022-12-07T01:44:24;6.20;99.90
41876;DHT22;27555;50.808;4.402;2022-12-07T01:46:53;6.50;99.90
41876;DHT22;27555;50.808;4.402;2022-12-07T01:49:31;6.60;99.90
41876;DHT22;27555;50.808;4.402;2022-12-07T01:52:16;6.60;99.90
41876;DHT22;27555;50.808;4.402;2022-12-07T01:54:48;6.40;99.90
41876;DHT22;27555;50.808;4.402;2022-12-07T01:57:15;6.40;99.90
41876;DHT22;27555;50.808;4.402;2022-12-07T01:59:43;6.50;99.90
41876;DHT22;27555;50.808;4.402;2022-12-07T02:02:20;6.40;99.90
41876;DHT22;27555;50.808;4.402;2022-12-07T02:04:51;6.50;99.90
41876;DHT22;27555;50.808;4.402;2022-12-07T02:07:38;6.40;99.90
41876;DHT22;27555;50.808;4.402;2022-12-07T02:10:24;6.30;99.90
41876;DHT22;27555;50.808;4.402;2022-12-07T02:13:12;6.50;99.90
41876;DHT22;27555;50.808;4.402;2022-12-07T02:21:34;6.80;99.90
41876;DHT22;27555;50.808;4.402;2022-12-07T02:27:10;7.00;99.90
41876;DHT22;27555;50.808;4.402;2022-12-07T02:33:05;7.00;99.90
41876;DHT22;27555;50.808;4.402;2022-12-07T02:35:35;7.10;99.90
41876;DHT22;27555;50.808;4.402;2022-12-07T02:38:19;7.10;99.90
41876;DHT22;27555;50.808;4.402;2022-12-07T02:43:27;6.60;99.90
41876;DHT22;27555;50.808;4.402;2022-12-07T02:45:58;6.20;99.90
41876;DHT22;27555;50.808;4.402;2022-12-07T02:48:27;6.50;99.90
41876;DHT22;27555;50.808;4.402;2022-12-07T02:50:56;6.70;99.90
41876;DHT22;27555;50.808;4.402;2022-12-07T02:53:39;6.80;99.90
41876;DHT22;27555;50.808;4.402;2022-12-07T02:56:25;7.00;99.90
41876;DHT22;27555;50.808;4.402;2022-12-07T03:07:18;7.00;99.90
41876;DHT22;27555;50.808;4.402;2022-12-07T03:15:25;7.00;99.90
41876;DHT22;27555;50.808;4.402;2022-12-07T03:17:53;6.80;99.90
41876;DHT22;27555;50.808;4.402;2022-12-07T03:20:22;6.70;99.90
41876;DHT22;27555;50.808;4.402;2022-12-07T03:22:49;6.50;99.90
41876;DHT22;27555;50.808;4.402;2022-12-07T03:25:17;6.30;99.90
41876;DHT22;27555;50.808;4.402;2022-12-07T03:27:53;6.30;99.90
41876;DHT22;27555;50.808;4.402;2022-12-07T03:30:24;6.30;99.90
41876;DHT22;27555;50.808;4.402;2022-12-07T03:36:04;6.30;99.90
41876;DHT22;27555;50.808;4.402;2022-12-07T03:38:23;6.30;99.90
41876;DHT22;27555;50.808;4.402;2022-12-07T03:43:50;6.50;99.90
41876;DHT22;27555;50.808;4.402;2022-12-07T03:49:03;6.60;99.90
41876;DHT22;27555;50.808;4.402;2022-12-07T03:51:44;6.60;99.90
41876;DHT22;27555;50.808;4.402;2022-12-07T03:56:59;6.20;99.90
41876;DHT22;27555;50.808;4.402;2022-12-07T03:59:26;6.30;99.90
41876;DHT22;27555;50.808;4.402;2022-12-07T04:01:56;6.30;99.90
41876;DHT22;27555;50.808;4.402;2022-12-07T04:04:23;6.30;99.90
41876;DHT22;27555;50.808;4.402;2022-12-07T04:06:50;6.20;99.90
41876;DHT22;27555;50.808;4.402;2022-12-07T04:09:16;6.10;99.90
41876;DHT22;27555;50.808;4.402;2022-12-07T04:11:44;6.20;99.90
41876;DHT22;27555;50.808;4.402;2022-12-07T04:14:10;6.30;99.90
41876;DHT22;27555;50.808;4.402;2022-12-07T04:16:53;6.10;99.90
41876;DHT22;27555;50.808;4.402;2022-12-07T04:19:21;6.10;99.90
41876;DHT22;27555;50.808;4.402;2022-12-07T04:21:47;6.00;99.90
41876;DHT22;27555;50.808;4.402;2022-12-07T04:24:14;5.90;99.90
41876;DHT22;27555;50.808;4.402;2022-12-07T04:26:45;6.00;99.90
41876;DHT22;27555;50.808;4.402;2022-12-07T04:29:15;6.00;99.90
41876;DHT22;27555;50.808;4.402;2022-12-07T04:31:41;6.00;99.90
41876;DHT22;27555;50.808;4.402;2022-12-07T04:34:07;5.90;99.90
41876;DHT22;27555;50.808;4.402;2022-12-07T04:36:33;6.00;99.90
41876;DHT22;27555;50.808;4.402;2022-12-07T04:38:59;5.80;99.90
41876;DHT22;27555;50.808;4.402;2022-12-07T04:41:25;5.80;99.90
41876;DHT22;27555;50.808;4.402;2022-12-07T04:43:56;6.00;99.90
41876;DHT22;27555;50.808;4.402;2022-12-07T04:46:24;6.10;99.90
41876;DHT22;27555;50.808;4.402;2022-12-07T04:48:51;6.10;99.90
41876;DHT22;27555;50.808;4.402;2022-12-07T04:51:21;6.00;99.90
41876;DHT22;27555;50.808;4.402;2022-12-07T04:53:47;5.90;99.90
41876;DHT22;27555;50.808;4.402;2022-12-07T04:56:14;5.80;99.90
41876;DHT22;27555;50.808;4.402;2022-12-07T04:58:42;5.90;99.90
41876;DHT22;27555;50.808;4.402;2022-12-07T05:01:08;5.90;99.90
41876;DHT22;27555;50.808;4.402;2022-12-07T05:03:34;6.00;99.90
41876;DHT22;27555;50.808;4.402;2022-12-07T05:06:01;6.40;99.90
41876;DHT22;27555;50.808;4.402;2022-12-07T05:08:28;6.20;99.90
41876;DHT22;27555;50.808;4.402;2022-12-07T05:10:53;5.90;99.90
41876;DHT22;27555;50.808;4.402;2022-12-07T05:13:21;5.90;99.90
41876;DHT22;27555;50.808;4.402;2022-12-07T05:15:48;6.00;99.90
41876;DHT22;27555;50.808;4.402;2022-12-07T05:18:14;6.20;99.90
41876;DHT22;27555;50.808;4.402;2022-12-07T05:20:42;6.30;99.90
41876;DHT22;27555;50.808;4.402;2022-12-07T05:23:08;6.20;99.90
41876;DHT22;27555;50.808;4.402;2022-12-07T05:25:34;6.20;99.90
41876;DHT22;27555;50.808;4.402;2022-12-07T05:28:00;6.20;99.90
41876;DHT22;27555;50.808;4.402;2022-12-07T05:30:28;6.30;99.90
41876;DHT22;27555;50.808;4.402;2022-12-07T05:32:54;6.20;99.90
41876;DHT22;27555;50.808;4.402;2022-12-07T05:35:21;6.20;99.90
41876;DHT22;27555;50.808;4.402;2022-12-07T05:37:49;6.30;99.90
41876;DHT22;27555;50.808;4.402;2022-12-07T05:40:14;6.40;99.90
41876;DHT22;27555;50.808;4.402;2022-12-07T05:42:41;6.40;99.90
41876;DHT22;27555;50.808;4.402;2022-12-07T05:45:10;6.50;99.90
41876;DHT22;27555;50.808;4.402;2022-12-07T05:47:38;6.40;99.90
41876;DHT22;27555;50.808;4.402;2022-12-07T05:50:05;6.40;99.90
41876;DHT22;27555;50.808;4.402;2022-12-07T05:52:31;6.50;99.90
41876;DHT22;27555;50.808;4.402;2022-12-07T05:54:57;6.50;99.90
41876;DHT22;27555;50.808;4.402;2022-12-07T05:57:22;6.60;99.90
41876;DHT22;27555;50.808;4.402;2022-12-07T05:59:48;6.60;99.90
41876;DHT22;27555;50.808;4.402;2022-12-07T06:02:15;6.60;99.90
41876;DHT22;27555;50.808;4.402;2022-12-07T06:04:44;6.40;99.90
41876;DHT22;27555;50.808;4.402;2022-12-07T06:07:12;6.50;99.90
41876;DHT22;27555;50.808;4.402;2022-12-07T06:09:38;6.40;99.90
41876;DHT22;27555;50.808;4.402;2022-12-07T06:12:05;6.40;99.90
41876;DHT22;27555;50.808;4.402;2022-12-07T06:14:50;6.40;99.90
41876;DHT22;27555;50.808;4.402;2022-12-07T06:17:16;6.40;99.90
41876;DHT22;27555;50.808;4.402;2022-12-07T06:19:42;6.60;99.90
41876;DHT22;27555;50.808;4.402;2022-12-07T06:22:09;6.60;99.90
41876;DHT22;27555;50.808;4.402;2022-12-07T06:24:36;6.60;99.90
41876;DHT22;27555;50.808;4.402;2022-12-07T06:27:01;6.50;99.90
41876;DHT22;27555;50.808;4.402;2022-12-07T06:29:27;6.40;99.90
41876;DHT22;27555;50.808;4.402;2022-12-07T06:31:53;6.30;99.90
41876;DHT22;27555;50.808;4.402;2022-12-07T06:34:20;6.30;99.90
41876;DHT22;27555;50.808;4.402;2022-12-07T06:36:48;6.50;99.90
41876;DHT22;27555;50.808;4.402;2022-12-07T06:39:18;6.50;99.90
41876;DHT22;27555;50.808;4.402;2022-12-07T06:41:43;6.40;99.90
41876;DHT22;27555;50.808;4.402;2022-12-07T06:44:09;6.20;99.90
41876;DHT22;27555;50.808;4.402;2022-12-07T06:46:36;6.10;99.90
41876;DHT22;27555;50.808;4.402;2022-12-07T06:49:02;6.20;99.90
41876;DHT22;27555;50.808;4.402;2022-12-07T06:51:28;6.20;99.90
41876;DHT22;27555;50.808;4.402;2022-12-07T06:53:54;6.20;99.90
41876;DHT22;27555;50.808;4.402;2022-12-07T06:56:20;6.40;99.90
41876;DHT22;27555;50.808;4.402;2022-12-07T06:58:46;6.50;99.90
41876;DHT22;27555;50.808;4.402;2022-12-07T07:01:13;6.60;99.90
41876;DHT22;27555;50.808;4.402;2022-12-07T07:03:39;6.70;99.90
41876;DHT22;27555;50.808;4.402;2022-12-07T07:06:05;6.80;99.90
41876;DHT22;27555;50.808;4.402;2022-12-07T07:08:31;6.80;99.90
41876;DHT22;27555;50.808;4.402;2022-12-07T07:10:57;6.80;99.90
41876;DHT22;27555;50.808;4.402;2022-12-07T07:13:22;6.80;99.90
41876;DHT22;27555;50.808;4.402;2022-12-07T07:15:48;6.70;99.90
41876;DHT22;27555;50.808;4.402;2022-12-07T07:18:14;6.60;99.90
41876;DHT22;27555;50.808;4.402;2022-12-07T07:20:40;6.50;99.90
41876;DHT22;27555;50.808;4.402;2022-12-07T07:23:06;6.60;99.90
41876;DHT22;27555;50.808;4.402;2022-12-07T07:25:32;6.60;99.90
41876;DHT22;27555;50.808;4.402;2022-12-07T07:27:58;6.70;99.90
41876;DHT22;27555;50.808;4.402;2022-12-07T07:30:25;6.70;99.90
41876;DHT22;27555;50.808;4.402;2022-12-07T07:32:51;6.60;99.90
41876;DHT22;27555;50.808;4.402;2022-12-07T07:35:21;6.60;99.90
41876;DHT22;27555;50.808;4.402;2022-12-07T07:37:46;6.60;99.90
41876;DHT22;27555;50.808;4.402;2022-12-07T07:40:12;6.70;99.90
41876;DHT22;27555;50.808;4.402;2022-12-07T07:42:38;6.60;99.90
41876;DHT22;27555;50.808;4.402;2022-12-07T07:45:04;6.50;99.90
41876;DHT22;27555;50.808;4.402;2022-12-07T07:47:30;6.60;99.90
41876;DHT22;27555;50.808;4.402;2022-12-07T07:49:55;6.40;99.90
41876;DHT22;27555;50.808;4.402;2022-12-07T07:52:21;6.50;99.90
41876;DHT22;27555;50.808;4.402;2022-12-07T07:54:47;6.60;99.90
41876;DHT22;27555;50.808;4.402;2022-12-07T07:57:14;6.60;99.90
41876;DHT22;27555;50.808;4.402;2022-12-07T07:59:41;6.70;99.90
41876;DHT22;27555;50.808;4.402;2022-12-07T08:02:12;6.70;99.90
41876;DHT22;27555;50.808;4.402;2022-12-07T08:04:38;6.80;99.90
41876;DHT22;27555;50.808;4.402;2022-12-07T08:07:04;6.90;99.90
41876;DHT22;27555;50.808;4.402;2022-12-07T08:09:29;6.80;99.90
41876;DHT22;27555;50.808;4.402;2022-12-07T08:11:55;6.70;99.90
41876;DHT22;27555;50.808;4.402;2022-12-07T08:14:20;6.50;99.90
41876;DHT22;27555;50.808;4.402;2022-12-07T08:16:46;6.50;99.90
41876;DHT22;27555;50.808;4.402;2022-12-07T08:19:13;6.60;99.90
41876;DHT22;27555;50.808;4.402;2022-12-07T08:21:38;6.60;99.90
41876;DHT22;27555;50.808;4.402;2022-12-07T08:24:05;6.80;99.90
41876;DHT22;27555;50.808;4.402;2022-12-07T08:26:31;6.70;99.90
41876;DHT22;27555;50.808;4.402;2022-12-07T08:28:56;6.60;99.90
41876;DHT22;27555;50.808;4.402;2022-12-07T08:31:22;6.60;99.90
41876;DHT22;27555;50.808;4.402;2022-12-07T08:33:48;6.60;99.90
41876;DHT22;27555;50.808;4.402;2022-12-07T08:36:14;6.50;99.90
41876;DHT22;27555;50.808;4.402;2022-12-07T08:38:41;6.60;99.90
41876;DHT22;27555;50.808;4.402;2022-12-07T08:41:07;6.40;99.90
41876;DHT22;27555;50.808;4.402;2022-12-07T08:43:33;6.40;99.90
41876;DHT22;27555;50.808;4.402;2022-12-07T08:48:37;6.50;99.90
41876;DHT22;27555;50.808;4.402;2022-12-07T08:51:04;6.50;99.90
41876;DHT22;27555;50.808;4.402;2022-12-07T08:53:30;6.60;99.90
41876;DHT22;27555;50.808;4.402;2022-12-07T08:55:57;6.60;99.90
41876;DHT22;27555;50.808;4.402;2022-12-07T08:58:23;6.90;99.90
41876;DHT22;27555;50.808;4.402;2022-12-07T09:00:49;7.00;99.90
41876;DHT22;27555;50.808;4.402;2022-12-07T09:03:14;7.00;99.90
41876;DHT22;27555;50.808;4.402;2022-12-07T09:05:40;7.20;99.90
41876;DHT22;27555;50.808;4.402;2022-12-07T09:08:07;7.40;99.90
41876;DHT22;27555;50.808;4.402;2022-12-07T09:10:32;7.40;99.90
41876;DHT22;27555;50.808;4.402;2022-12-07T09:12:58;7.60;99.90
41876;DHT22;27555;50.808;4.402;2022-12-07T09:15:28;7.80;99.90
41876;DHT22;27555;50.808;4.402;2022-12-07T09:17:54;8.00;99.90
41876;DHT22;27555;50.808;4.402;2022-12-07T09:20:20;7.90;99.90
41876;DHT22;27555;50.808;4.402;2022-12-07T09:22:45;7.90;99.90
41876;DHT22;27555;50.808;4.402;2022-12-07T09:25:11;8.10;99.90
41876;DHT22;27555;50.808;4.402;2022-12-07T09:27:37;8.20;99.90
41876;DHT22;27555;50.808;4.402;2022-12-07T09:30:04;8.20;99.90
41876;DHT22;27555;50.808;4.402;2022-12-07T09:32:30;8.40;99.90
41876;DHT22;27555;50.808;4.402;2022-12-07T09:34:55;8.40;99.90
41876;DHT22;27555;50.808;4.402;2022-12-07T09:37:21;8.60;99.90
41876;DHT22;27555;50.808;4.402;2022-12-07T09:39:48;8.70;99.90
41876;DHT22;27555;50.808;4.402;2022-12-07T09:42:30;8.80;99.90
41876;DHT22;27555;50.808;4.402;2022-12-07T09:44:58;8.90;99.90
41876;DHT22;27555;50.808;4.402;2022-12-07T09:47:24;8.90;99.90
41876;DHT22;27555;50.808;4.402;2022-12-07T09:49:50;8.90;99.90
41876;DHT22;27555;50.808;4.402;2022-12-07T09:52:25;9.00;99.90
41876;DHT22;27555;50.808;4.402;2022-12-07T09:54:51;9.00;99.90
41876;DHT22;27555;50.808;4.402;2022-12-07T09:57:27;8.80;99.90
41876;DHT22;27555;50.808;4.402;2022-12-07T09:59:54;8.50;99.90
41876;DHT22;27555;50.808;4.402;2022-12-07T10:02:41;8.50;99.90
41876;DHT22;27555;50.808;4.402;2022-12-07T10:05:14;8.70;99.90
41876;DHT22;27555;50.808;4.402;2022-12-07T10:07:41;8.40;99.90
41876;DHT22;27555;50.808;4.402;2022-12-07T10:10:14;8.60;99.90
41876;DHT22;27555;50.808;4.402;2022-12-07T10:12:55;8.50;99.90
41876;DHT22;27555;50.808;4.402;2022-12-07T10:15:21;8.50;99.90
41876;DHT22;27555;50.808;4.402;2022-12-07T10:17:49;8.60;99.90
41876;DHT22;27555;50.808;4.402;2022-12-07T10:22:58;8.50;99.90
41876;DHT22;27555;50.808;4.402;2022-12-07T10:25:28;8.70;99.90
41876;DHT22;27555;50.808;4.402;2022-12-07T10:28:12;8.80;99.90
41876;DHT22;27555;50.808;4.402;2022-12-07T10:30:56;8.70;99.90
41876;DHT22;27555;50.808;4.402;2022-12-07T10:33:37;8.60;99.90
41876;DHT22;27555;50.808;4.402;2022-12-07T10:36:30;8.40;99.90
41876;DHT22;27555;50.808;4.402;2022-12-07T10:39:21;8.50;99.90
41876;DHT22;27555;50.808;4.402;2022-12-07T10:44:30;8.70;99.90
41876;DHT22;27555;50.808;4.402;2022-12-07T10:53:35;8.90;99.90
41876;DHT22;27555;50.808;4.402;2022-12-07T11:07:02;9.10;99.90
41876;DHT22;27555;50.808;4.402;2022-12-07T11:18:14;9.30;99.90
41876;DHT22;27555;50.808;4.402;2022-12-07T11:20:57;9.70;99.90
41876;DHT22;27555;50.808;4.402;2022-12-07T11:26:17;9.90;99.90
41876;DHT22;27555;50.808;4.402;2022-12-07T11:37:18;9.20;99.90
41876;DHT22;27555;50.808;4.402;2022-12-07T11:40:00;9.20;99.90
41876;DHT22;27555;50.808;4.402;2022-12-07T11:42:31;9.10;99.90
41876;DHT22;27555;50.808;4.402;2022-12-07T12:04:06;12.60;99.90
41876;DHT22;27555;50.808;4.402;2022-12-07T12:06:32;13.50;99.90
41876;DHT22;27555;50.808;4.402;2022-12-07T12:09:29;13.30;99.90
41876;DHT22;27555;50.808;4.402;2022-12-07T12:12:29;12.80;99.90
41876;DHT22;27555;50.808;4.402;2022-12-07T12:15:48;13.40;99.90
41876;DHT22;27555;50.808;4.402;2022-12-07T12:25:52;12.20;99.90
41876;DHT22;27555;50.808;4.402;2022-12-07T12:28:41;12.10;99.90
41876;DHT22;27555;50.808;4.402;2022-12-07T12:33:53;11.50;99.90
41876;DHT22;27555;50.808;4.402;2022-12-07T12:36:24;11.00;99.90
41876;DHT22;27555;50.808;4.402;2022-12-07T12:39:13;10.40;99.90
41876;DHT22;27555;50.808;4.402;2022-12-07T12:46:59;10.70;99.90
41876;DHT22;27555;50.808;4.402;2022-12-07T12:51:52;10.80;99.90
41876;DHT22;27555;50.808;4.402;2022-12-07T12:59:36;10.20;99.90
41876;DHT22;27555;50.808;4.402;2022-12-07T13:05:41;9.00;99.90
41876;DHT22;27555;50.808;4.402;2022-12-07T13:10:36;8.90;99.90
41876;DHT22;27555;50.808;4.402;2022-12-07T13:18:36;9.00;99.90
41876;DHT22;27555;50.808;4.402;2022-12-07T13:23:56;9.10;99.90
41876;DHT22;27555;50.808;4.402;2022-12-07T13:26:36;9.00;99.90
41876;DHT22;27555;50.808;4.402;2022-12-07T13:34:34;9.10;99.90
41876;DHT22;27555;50.808;4.402;2022-12-07T13:37:24;9.00;99.90
41876;DHT22;27555;50.808;4.402;2022-12-07T13:39:54;9.10;99.90
41876;DHT22;27555;50.808;4.402;2022-12-07T13:44:54;9.10;99.90
41876;DHT22;27555;50.808;4.402;2022-12-07T13:49:54;9.30;99.90
41876;DHT22;27555;50.808;4.402;2022-12-07T13:52:24;9.20;99.90
41876;DHT22;27555;50.808;4.402;2022-12-07T13:57:26;9.00;99.90
41876;DHT22;27555;50.808;4.402;2022-12-07T13:59:52;9.10;99.90
41876;DHT22;27555;50.808;4.402;2022-12-07T14:02:30;9.20;99.90
41876;DHT22;27555;50.808;4.402;2022-12-07T14:07:35;9.10;99.90
41876;DHT22;27555;50.808;4.402;2022-12-07T14:10:05;9.10;99.90
41876;DHT22;27555;50.808;4.402;2022-12-07T14:12:32;9.10;99.90
41876;DHT22;27555;50.808;4.402;2022-12-07T14:15:01;9.20;99.90
41876;DHT22;27555;50.808;4.402;2022-12-07T14:17:27;9.10;99.90
41876;DHT22;27555;50.808;4.402;2022-12-07T14:19:56;9.00;99.90
41876;DHT22;27555;50.808;4.402;2022-12-07T14:22:29;9.20;99.90
41876;DHT22;27555;50.808;4.402;2022-12-07T14:25:19;9.00;99.90
41876;DHT22;27555;50.808;4.402;2022-12-07T14:28:03;9.00;99.90
41876;DHT22;27555;50.808;4.402;2022-12-07T14:30:31;8.70;99.90
41876;DHT22;27555;50.808;4.402;2022-12-07T14:33:00;8.60;99.90
41876;DHT22;27555;50.808;4.402;2022-12-07T14:35:28;8.30;99.90
41876;DHT22;27555;50.808;4.402;2022-12-07T14:37:54;8.40;99.90
41876;DHT22;27555;50.808;4.402;2022-12-07T14:40:29;8.60;99.90
41876;DHT22;27555;50.808;4.402;2022-12-07T14:43:12;8.60;99.90
41876;DHT22;27555;50.808;4.402;2022-12-07T14:45:40;8.30;99.90
41876;DHT22;27555;50.808;4.402;2022-12-07T14:48:09;8.40;99.90
41876;DHT22;27555;50.808;4.402;2022-12-07T14:50:36;8.60;99.90
41876;DHT22;27555;50.808;4.402;2022-12-07T14:53:16;8.60;99.90
41876;DHT22;27555;50.808;4.402;2022-12-07T14:55:42;8.50;99.90
41876;DHT22;27555;50.808;4.402;2022-12-07T14:58:14;8.20;99.90
41876;DHT22;27555;50.808;4.402;2022-12-07T15:00:41;7.70;99.90
41876;DHT22;27555;50.808;4.402;2022-12-07T15:03:06;7.70;99.90
41876;DHT22;27555;50.808;4.402;2022-12-07T15:05:32;7.40;99.90
41876;DHT22;27555;50.808;4.402;2022-12-07T15:07:58;7.40;99.90
41876;DHT22;27555;50.808;4.402;2022-12-07T15:10:28;7.40;99.90
41876;DHT22;27555;50.808;4.402;2022-12-07T15:12:57;7.50;99.90
41876;DHT22;27555;50.808;4.402;2022-12-07T15:15:50;7.70;99.90
41876;DHT22;27555;50.808;4.402;2022-12-07T15:18:16;8.00;99.90
41876;DHT22;27555;50.808;4.402;2022-12-07T15:20:42;8.20;99.90
41876;DHT22;27555;50.808;4.402;2022-12-07T15:23:09;8.30;99.90
41876;DHT22;27555;50.808;4.402;2022-12-07T15:25:35;8.40;99.90
41876;DHT22;27555;50.808;4.402;2022-12-07T15:28:00;8.50;99.90
41876;DHT22;27555;50.808;4.402;2022-12-07T15:30:26;8.40;99.90
41876;DHT22;27555;50.808;4.402;2022-12-07T15:32:52;8.60;99.90
41876;DHT22;27555;50.808;4.402;2022-12-07T15:35:18;8.40;99.90
41876;DHT22;27555;50.808;4.402;2022-12-07T15:37:45;8.30;99.90
41876;DHT22;27555;50.808;4.402;2022-12-07T15:40:14;8.20;99.90
41876;DHT22;27555;50.808;4.402;2022-12-07T15:42:42;8.30;99.90
41876;DHT22;27555;50.808;4.402;2022-12-07T15:45:08;8.40;99.90
41876;DHT22;27555;50.808;4.402;2022-12-07T15:47:40;8.50;99.90
41876;DHT22;27555;50.808;4.402;2022-12-07T15:50:09;8.50;99.90
41876;DHT22;27555;50.808;4.402;2022-12-07T15:52:35;8.40;99.90
41876;DHT22;27555;50.808;4.402;2022-12-07T15:55:01;8.40;99.90
41876;DHT22;27555;50.808;4.402;2022-12-07T15:57:35;8.50;99.90
41876;DHT22;27555;50.808;4.402;2022-12-07T16:00:03;8.50;99.90
41876;DHT22;27555;50.808;4.402;2022-12-07T16:02:29;8.50;99.90
41876;DHT22;27555;50.808;4.402;2022-12-07T16:04:54;8.60;99.90
41876;DHT22;27555;50.808;4.402;2022-12-07T16:07:20;8.20;99.90
41876;DHT22;27555;50.808;4.402;2022-12-07T16:09:46;8.30;99.90
41876;DHT22;27555;50.808;4.402;2022-12-07T16:12:13;8.20;99.90
41876;DHT22;27555;50.808;4.402;2022-12-07T16:14:39;8.20;99.90
41876;DHT22;27555;50.808;4.402;2022-12-07T16:17:05;8.20;99.90
41876;DHT22;27555;50.808;4.402;2022-12-07T16:19:31;8.10;99.90
41876;DHT22;27555;50.808;4.402;2022-12-07T16:21:57;8.10;99.90
41876;DHT22;27555;50.808;4.402;2022-12-07T16:24:23;8.20;99.90
41876;DHT22;27555;50.808;4.402;2022-12-07T16:26:49;8.20;99.90
41876;DHT22;27555;50.808;4.402;2022-12-07T16:29:17;8.20;99.90
41876;DHT22;27555;50.808;4.402;2022-12-07T16:31:42;8.20;99.90
41876;DHT22;27555;50.808;4.402;2022-12-07T16:34:09;8.30;99.90
41876;DHT22;27555;50.808;4.402;2022-12-07T16:36:34;8.10;99.90
41876;DHT22;27555;50.808;4.402;2022-12-07T16:39:01;8.00;99.90
41876;DHT22;27555;50.808;4.402;2022-12-07T16:41:26;8.10;99.90
41876;DHT22;27555;50.808;4.402;2022-12-07T16:43:52;8.10;99.90
41876;DHT22;27555;50.808;4.402;2022-12-07T16:46:17;8.10;99.90
41876;DHT22;27555;50.808;4.402;2022-12-07T16:48:43;8.10;99.90
41876;DHT22;27555;50.808;4.402;2022-12-07T16:51:12;8.10;99.90
41876;DHT22;27555;50.808;4.402;2022-12-07T16:53:39;7.90;99.90
41876;DHT22;27555;50.808;4.402;2022-12-07T16:56:11;7.90;99.90
41876;DHT22;27555;50.808;4.402;2022-12-07T16:58:37;8.00;99.90
41876;DHT22;27555;50.808;4.402;2022-12-07T17:01:13;7.90;99.90
41876;DHT22;27555;50.808;4.402;2022-12-07T17:03:39;8.00;99.90
41876;DHT22;27555;50.808;4.402;2022-12-07T17:06:29;8.00;99.90
41876;DHT22;27555;50.808;4.402;2022-12-07T17:08:56;7.80;99.90
41876;DHT22;27555;50.808;4.402;2022-12-07T17:11:24;7.80;99.90
41876;DHT22;27555;50.808;4.402;2022-12-07T17:13:50;7.90;99.90
41876;DHT22;27555;50.808;4.402;2022-12-07T17:16:35;8.10;99.90
41876;DHT22;27555;50.808;4.402;2022-12-07T17:19:04;8.20;99.90
41876;DHT22;27555;50.808;4.402;2022-12-07T17:21:31;8.10;99.90
41876;DHT22;27555;50.808;4.402;2022-12-07T17:23:59;8.10;99.90
41876;DHT22;27555;50.808;4.402;2022-12-07T17:26:26;8.10;99.90
41876;DHT22;27555;50.808;4.402;2022-12-07T17:28:52;8.10;99.90
41876;DHT22;27555;50.808;4.402;2022-12-07T17:31:19;8.00;99.90
41876;DHT22;27555;50.808;4.402;2022-12-07T17:33:45;8.10;99.90
41876;DHT22;27555;50.808;4.402;2022-12-07T17:36:24;8.20;99.90
41876;DHT22;27555;50.808;4.402;2022-12-07T17:38:51;8.10;99.90
41876;DHT22;27555;50.808;4.402;2022-12-07T17:41:23;7.90;99.90
41876;DHT22;27555;50.808;4.402;2022-12-07T17:44:13;8.00;99.90
41876;DHT22;27555;50.808;4.402;2022-12-07T17:46:40;8.00;99.90
41876;DHT22;27555;50.808;4.402;2022-12-07T17:49:18;8.00;99.90
41876;DHT22;27555;50.808;4.402;2022-12-07T17:51:44;7.90;99.90
41876;DHT22;27555;50.808;4.402;2022-12-07T17:54:28;7.70;99.90
41876;DHT22;27555;50.808;4.402;2022-12-07T17:56:54;7.80;99.90
41876;DHT22;27555;50.808;4.402;2022-12-07T17:59:20;7.80;99.90
41876;DHT22;27555;50.808;4.402;2022-12-07T18:01:46;7.90;99.90
41876;DHT22;27555;50.808;4.402;2022-12-07T18:04:12;8.00;99.90
41876;DHT22;27555;50.808;4.402;2022-12-07T18:06:38;8.00;99.90
41876;DHT22;27555;50.808;4.402;2022-12-07T18:09:04;7.90;99.90
41876;DHT22;27555;50.808;4.402;2022-12-07T18:11:30;8.10;99.90
41876;DHT22;27555;50.808;4.402;2022-12-07T18:13:56;8.10;99.90
41876;DHT22;27555;50.808;4.402;2022-12-07T18:16:25;8.10;99.90
41876;DHT22;27555;50.808;4.402;2022-12-07T18:18:51;7.90;99.90
41876;DHT22;27555;50.808;4.402;2022-12-07T18:21:23;7.90;99.90
41876;DHT22;27555;50.808;4.402;2022-12-07T18:23:51;7.80;99.90
41876;DHT22;27555;50.808;4.402;2022-12-07T18:26:19;7.90;99.90
41876;DHT22;27555;50.808;4.402;2022-12-07T18:28:45;7.70;99.90
41876;DHT22;27555;50.808;4.402;2022-12-07T18:31:11;7.50;99.90
41876;DHT22;27555;50.808;4.402;2022-12-07T18:33:40;7.70;99.90
41876;DHT22;27555;50.808;4.402;2022-12-07T18:36:07;7.60;99.90
41876;DHT22;27555;50.808;4.402;2022-12-07T18:38:33;7.60;99.90
41876;DHT22;27555;50.808;4.402;2022-12-07T18:41:00;7.70;99.90
41876;DHT22;27555;50.808;4.402;2022-12-07T18:43:26;7.70;99.90